Time;durP1;ratioP1;P1;durP2;ratioP2;P2;SDS_P1;SDS_P2;PMS_P1;PMS_P2;Temp;Humidity;BMP_temperature;BMP_pressure;BME280_temperature;BME280_humidity;BME280_pressure;Samples;Min_cycle;Max_cycle;Signal;HPM_P1;HPM_P2
2023/06/07 00:00:14;;;;;;;6.93;2.60;;;11.30;99.90;;;;;;5134186;27;20082;-75
2023/06/07 00:02:41;;;;;;;4.50;2.80;;;11.30;99.90;;;;;;5135659;27;20035;-75
2023/06/07 00:05:07;;;;;;;6.95;2.95;;;11.20;99.90;;;;;;5113299;27;20055;-76
2023/06/07 00:07:35;;;;;;;5.88;2.47;;;11.10;99.90;;;;;;5112721;27;20043;-75
2023/06/07 00:10:02;;;;;;;5.60;2.83;;;11.00;99.90;;;;;;5132465;27;20067;-76
2023/06/07 00:12:28;;;;;;;6.10;2.78;;;11.00;99.90;;;;;;5128403;27;20099;-77
2023/06/07 00:14:54;;;;;;;7.70;3.10;;;10.90;99.90;;;;;;5115637;27;20077;-76
2023/06/07 00:17:20;;;;;;;5.75;2.65;;;10.80;99.90;;;;;;5107483;27;20051;-76
2023/06/07 00:19:46;;;;;;;4.32;2.17;;;10.80;99.90;;;;;;5132677;27;20077;-76
2023/06/07 00:22:12;;;;;;;5.15;2.83;;;10.80;99.90;;;;;;5112683;28;20067;-76
2023/06/07 00:24:39;;;;;;;4.47;2.78;;;10.70;99.90;;;;;;5124886;27;20051;-75
2023/06/07 00:27:05;;;;;;;4.85;2.85;;;10.60;99.90;;;;;;5106421;28;20046;-76
2023/06/07 00:29:31;;;;;;;6.30;2.72;;;10.60;99.90;;;;;;5125976;27;20055;-75
2023/06/07 00:31:56;;;;;;;5.03;2.95;;;10.60;99.90;;;;;;5134191;27;20104;-75
2023/06/07 00:34:22;;;;;;;4.47;2.95;;;10.60;99.90;;;;;;5135994;27;20043;-75
2023/06/07 00:36:48;;;;;;;6.85;3.35;;;10.50;99.90;;;;;;5135980;27;20499;-75
2023/06/07 00:39:13;;;;;;;6.55;3.53;;;10.60;99.90;;;;;;5112431;27;20437;-75
2023/06/07 00:41:39;;;;;;;4.80;2.90;;;10.60;99.90;;;;;;5119043;27;20550;-75
2023/06/07 00:44:05;;;;;;;4.57;3.10;;;10.60;99.90;;;;;;5130919;27;20038;-75
2023/06/07 00:46:32;;;;;;;5.47;3.35;;;10.60;99.90;;;;;;5136257;27;20091;-75
2023/06/07 00:48:58;;;;;;;5.55;3.22;;;10.60;99.90;;;;;;5135508;27;20057;-75
2023/06/07 00:51:28;;;;;;;5.85;3.08;;;10.60;99.90;;;;;;5136285;27;20047;-75
2023/06/07 00:53:58;;;;;;;6.30;3.20;;;10.70;99.90;;;;;;5136136;27;20043;-75
2023/06/07 00:56:24;;;;;;;6.97;3.47;;;10.70;99.90;;;;;;5125928;27;20130;-75
2023/06/07 00:58:50;;;;;;;6.00;3.65;;;10.70;99.90;;;;;;5119150;27;20676;-76
2023/06/07 01:01:17;;;;;;;4.82;3.15;;;10.70;99.90;;;;;;5135872;27;20118;-75
2023/06/07 01:03:44;;;;;;;7.07;3.45;;;10.70;99.90;;;;;;5130247;27;20050;-75
2023/06/07 01:06:10;;;;;;;8.27;3.33;;;10.70;99.90;;;;;;5112510;27;20050;-75
2023/06/07 01:08:37;;;;;;;6.25;3.33;;;10.70;99.90;;;;;;5135482;27;20047;-75
2023/06/07 01:11:04;;;;;;;8.98;4.10;;;10.70;99.90;;;;;;5135986;27;20050;-75
2023/06/07 01:13:31;;;;;;;7.03;3.42;;;10.70;99.90;;;;;;5135672;27;20074;-75
2023/06/07 01:15:57;;;;;;;7.43;3.40;;;10.60;99.90;;;;;;5115366;28;20100;-75
2023/06/07 01:18:26;;;;;;;7.15;3.80;;;10.60;99.90;;;;;;5125391;27;20111;-75
2023/06/07 01:20:57;;;;;;;5.05;3.60;;;10.70;99.90;;;;;;5118918;27;20074;-75
2023/06/07 01:23:32;;;;;;;6.93;3.80;;;10.70;99.90;;;;;;5134505;27;20050;-75
2023/06/07 01:26:00;;;;;;;6.28;3.80;;;10.80;99.90;;;;;;5137123;27;20046;-75
2023/06/07 01:28:28;;;;;;;8.50;3.97;;;10.80;99.90;;;;;;5137999;27;20463;-75
2023/06/07 01:30:54;;;;;;;6.90;3.83;;;10.80;99.90;;;;;;5158390;27;20093;-75
2023/06/07 01:33:21;;;;;;;6.30;3.40;;;10.80;99.90;;;;;;5155692;27;20046;-75
2023/06/07 01:35:49;;;;;;;8.52;3.80;;;10.80;99.90;;;;;;5158995;27;20409;-75
2023/06/07 01:38:17;;;;;;;6.82;4.03;;;10.90;99.90;;;;;;5121590;27;20086;-75
2023/06/07 01:40:44;;;;;;;6.47;3.30;;;10.90;99.90;;;;;;5116636;27;20046;-75
2023/06/07 01:43:10;;;;;;;8.05;3.72;;;10.90;99.90;;;;;;5096184;27;20462;-75
2023/06/07 01:45:37;;;;;;;9.35;4.03;;;10.80;99.90;;;;;;5139461;27;20087;-75
2023/06/07 01:48:04;;;;;;;6.30;4.00;;;10.80;99.90;;;;;;5117326;27;20050;-75
2023/06/07 01:50:30;;;;;;;8.02;3.65;;;10.80;99.90;;;;;;5108743;27;20051;-75
2023/06/07 01:52:55;;;;;;;6.47;4.07;;;10.80;99.90;;;;;;5152196;27;20094;-76
2023/06/07 01:55:23;;;;;;;8.38;3.75;;;10.70;99.90;;;;;;5139193;27;20133;-75
2023/06/07 01:58:01;;;;;;;6.57;4.15;;;10.60;99.90;;;;;;5121045;27;20043;-75
2023/06/07 02:00:54;;;;;;;5.82;4.25;;;10.60;99.90;;;;;;5122138;27;20086;-76
2023/06/07 02:03:33;;;;;;;7.88;4.30;;;10.60;99.90;;;;;;5136935;27;20090;-75
2023/06/07 02:06:10;;;;;;;9.27;4.60;;;10.60;99.90;;;;;;5138408;27;20054;-75
2023/06/07 02:08:48;;;;;;;6.32;3.70;;;10.60;99.90;;;;;;5121257;27;20559;-75
2023/06/07 02:11:16;;;;;;;7.75;4.10;;;10.60;99.90;;;;;;5124509;27;20058;-75
2023/06/07 02:13:43;;;;;;;6.57;4.10;;;10.60;99.90;;;;;;5115277;27;20099;-75
2023/06/07 02:16:10;;;;;;;7.15;5.15;;;10.50;99.90;;;;;;5125704;27;20035;-75
2023/06/07 02:18:40;;;;;;;10.30;4.60;;;10.40;99.90;;;;;;5139044;27;20517;-75
2023/06/07 02:21:10;;;;;;;8.40;5.30;;;10.40;99.90;;;;;;5157483;27;20042;-76
2023/06/07 02:23:36;;;;;;;8.00;4.38;;;10.40;99.90;;;;;;5139156;27;20155;-76
2023/06/07 02:26:03;;;;;;;6.68;4.70;;;10.40;99.90;;;;;;5139187;27;20038;-75
2023/06/07 02:28:29;;;;;;;7.47;4.43;;;10.40;99.90;;;;;;5139206;27;20047;-75
2023/06/07 02:30:58;;;;;;;8.73;4.68;;;10.40;99.90;;;;;;5118173;27;20047;-75
2023/06/07 02:33:24;;;;;;;8.73;4.80;;;10.30;99.90;;;;;;5138350;27;20056;-75
2023/06/07 02:35:50;;;;;;;8.80;4.47;;;10.30;99.90;;;;;;5112487;27;20471;-76
2023/06/07 02:38:15;;;;;;;7.15;4.57;;;10.30;99.90;;;;;;5138111;27;20062;-75
2023/06/07 02:40:41;;;;;;;10.35;5.20;;;10.30;99.90;;;;;;5138537;27;20077;-76
2023/06/07 02:43:07;;;;;;;9.07;4.65;;;10.30;99.90;;;;;;5138576;27;20077;-76
2023/06/07 02:45:33;;;;;;;9.25;4.75;;;10.20;99.90;;;;;;5138337;27;20046;-75
2023/06/07 02:47:58;;;;;;;9.43;5.07;;;10.20;99.90;;;;;;5138744;27;20046;-76
2023/06/07 02:50:24;;;;;;;7.53;4.97;;;10.20;99.90;;;;;;5118059;27;20051;-75
2023/06/07 02:52:50;;;;;;;7.25;5.00;;;10.10;99.90;;;;;;5138195;27;20053;-75
2023/06/07 02:55:16;;;;;;;7.63;4.70;;;10.10;99.90;;;;;;5131182;27;20091;-75
2023/06/07 02:57:42;;;;;;;9.85;4.88;;;10.10;99.90;;;;;;5121274;27;20046;-76
2023/06/07 03:00:11;;;;;;;8.63;4.25;;;10.10;99.90;;;;;;5115837;27;20486;-75
2023/06/07 03:02:37;;;;;;;10.45;4.57;;;10.10;99.90;;;;;;5100659;27;20047;-75
2023/06/07 03:05:04;;;;;;;7.03;4.18;;;10.10;99.90;;;;;;5111035;27;20047;-76
2023/06/07 03:07:32;;;;;;;7.65;4.63;;;10.10;99.90;;;;;;5136509;27;20070;-75
2023/06/07 03:09:58;;;;;;;9.30;5.03;;;10.10;99.90;;;;;;5117511;27;20095;-75
2023/06/07 03:12:24;;;;;;;7.78;4.20;;;10.10;99.90;;;;;;5151991;27;20491;-76
2023/06/07 03:14:49;;;;;;;8.18;5.38;;;10.10;99.90;;;;;;5137731;27;20039;-76
2023/06/07 03:17:17;;;;;;;7.60;4.57;;;10.00;99.90;;;;;;5138262;27;20050;-75
2023/06/07 03:19:43;;;;;;;7.57;4.93;;;10.00;99.90;;;;;;5116961;27;20494;-76
2023/06/07 03:22:09;;;;;;;7.88;4.47;;;10.10;99.90;;;;;;5129367;27;20070;-76
2023/06/07 03:24:36;;;;;;;8.25;4.65;;;10.10;99.90;;;;;;5137692;27;20144;-76
2023/06/07 03:27:03;;;;;;;9.50;5.40;;;10.10;99.90;;;;;;5135078;27;20047;-75
2023/06/07 03:29:30;;;;;;;9.50;5.07;;;10.10;99.90;;;;;;5131248;27;20051;-75
2023/06/07 03:31:56;;;;;;;11.02;5.07;;;10.00;99.90;;;;;;5124598;27;20047;-75
2023/06/07 03:34:22;;;;;;;11.60;5.05;;;10.10;99.90;;;;;;5096010;27;20167;-75
2023/06/07 03:36:48;;;;;;;9.50;5.03;;;10.00;99.90;;;;;;5130775;27;20448;-76
2023/06/07 03:39:14;;;;;;;8.80;5.03;;;10.00;99.90;;;;;;5132535;27;20046;-76
2023/06/07 03:41:40;;;;;;;6.82;5.00;;;10.00;99.90;;;;;;5137425;27;20051;-75
2023/06/07 03:44:05;;;;;;;10.07;4.72;;;10.00;99.90;;;;;;5120290;27;20040;-75
2023/06/07 03:46:31;;;;;;;9.80;5.10;;;10.00;99.90;;;;;;5120577;27;20050;-76
2023/06/07 03:48:56;;;;;;;7.15;4.30;;;10.10;99.90;;;;;;5119910;27;20053;-75
2023/06/07 03:51:22;;;;;;;12.57;5.43;;;10.10;99.90;;;;;;5137419;27;20475;-75
2023/06/07 03:53:48;;;;;;;8.43;4.55;;;10.20;99.90;;;;;;5137439;27;20050;-76
2023/06/07 03:56:14;;;;;;;6.32;4.28;;;10.20;99.90;;;;;;5136970;27;20084;-75
2023/06/07 03:58:40;;;;;;;9.05;4.60;;;10.20;99.90;;;;;;5120480;27;20069;-75
2023/06/07 04:01:06;;;;;;;7.47;4.97;;;10.30;99.90;;;;;;5120019;27;20042;-75
2023/06/07 04:03:32;;;;;;;7.78;4.70;;;10.40;99.90;;;;;;5136911;27;20042;-75
2023/06/07 04:05:58;;;;;;;7.78;4.25;;;10.40;99.90;;;;;;5113646;27;20045;-75
2023/06/07 04:08:24;;;;;;;7.43;4.50;;;10.60;99.90;;;;;;5130160;27;20042;-75
2023/06/07 04:10:50;;;;;;;9.10;4.55;;;10.60;99.90;;;;;;5136885;27;20038;-75
2023/06/07 04:13:16;;;;;;;8.50;4.65;;;10.70;99.90;;;;;;5136937;27;20043;-76
2023/06/07 04:15:42;;;;;;;8.70;4.45;;;10.80;99.90;;;;;;5103212;27;20047;-75
2023/06/07 04:18:08;;;;;;;8.48;3.80;;;10.80;99.90;;;;;;5136812;27;20034;-75
2023/06/07 04:20:34;;;;;;;7.30;4.25;;;10.90;99.90;;;;;;5152343;27;20049;-75
2023/06/07 04:23:00;;;;;;;8.93;4.00;;;10.90;99.90;;;;;;5098832;27;20047;-75
2023/06/07 04:25:33;;;;;;;11.48;4.05;;;11.00;99.90;;;;;;5124166;27;20491;-76
2023/06/07 04:28:02;;;;;;;7.80;4.22;;;11.10;99.90;;;;;;5136017;27;20038;-75
2023/06/07 04:30:34;;;;;;;7.68;3.70;;;11.20;99.90;;;;;;5136444;27;20581;-75
2023/06/07 04:33:04;;;;;;;8.10;3.53;;;11.20;99.90;;;;;;5104510;27;20051;-75
2023/06/07 04:35:33;;;;;;;9.50;4.68;;;11.30;99.90;;;;;;5134962;27;20055;-75
2023/06/07 04:38:01;;;;;;;6.38;4.28;;;11.40;99.90;;;;;;5135540;27;20088;-75
2023/06/07 04:40:30;;;;;;;7.70;3.92;;;11.40;99.90;;;;;;5118873;27;20049;-75
2023/06/07 04:43:04;;;;;;;8.35;3.90;;;11.40;99.90;;;;;;5120138;27;20035;-75
2023/06/07 04:45:41;;;;;;;6.88;3.83;;;11.50;99.90;;;;;;5136385;27;20054;-76
2023/06/07 04:48:07;;;;;;;8.07;3.88;;;11.60;99.90;;;;;;5136276;27;20142;-76
2023/06/07 04:50:33;;;;;;;10.13;4.15;;;11.60;99.90;;;;;;5136395;27;20054;-76
2023/06/07 04:53:03;;;;;;;9.82;4.07;;;11.60;99.90;;;;;;5117833;27;20384;-75
2023/06/07 04:55:35;;;;;;;9.07;3.95;;;11.70;99.90;;;;;;5125583;27;20494;-76
2023/06/07 04:58:04;;;;;;;10.25;4.00;;;11.80;99.90;;;;;;5137588;27;20215;-75
2023/06/07 05:00:33;;;;;;;7.82;4.32;;;11.80;99.90;;;;;;5118266;27;20421;-77
2023/06/07 05:03:08;;;;;;;9.00;3.78;;;11.90;99.90;;;;;;5136011;27;20065;-76
2023/06/07 05:05:34;;;;;;;6.90;4.18;;;12.00;99.90;;;;;;5136133;27;20053;-76
2023/06/07 05:08:01;;;;;;;8.07;3.83;;;12.00;99.90;;;;;;5135322;27;20047;-76
2023/06/07 05:10:27;;;;;;;7.88;4.22;;;12.10;99.90;;;;;;5136577;27;20054;-76
2023/06/07 05:12:53;;;;;;;10.85;4.47;;;12.20;99.90;;;;;;5135900;27;20046;-77
2023/06/07 05:15:21;;;;;;;9.60;3.70;;;12.20;99.90;;;;;;5130850;27;20050;-75
2023/06/07 05:17:48;;;;;;;7.07;3.80;;;12.30;99.90;;;;;;5119430;27;20126;-77
2023/06/07 05:20:15;;;;;;;7.75;3.70;;;12.30;99.90;;;;;;5101814;27;20081;-75
2023/06/07 05:22:41;;;;;;;7.93;3.67;;;12.40;99.90;;;;;;5136130;27;20046;-75
2023/06/07 05:25:09;;;;;;;8.50;3.42;;;12.50;99.90;;;;;;5153871;27;20038;-75
2023/06/07 05:27:42;;;;;;;8.88;3.70;;;12.50;99.90;;;;;;5084924;27;20043;-76
2023/06/07 05:30:09;;;;;;;6.85;2.92;;;12.50;99.90;;;;;;5135591;27;20047;-76
2023/06/07 05:32:36;;;;;;;7.75;3.35;;;12.60;99.90;;;;;;5118597;27;20050;-76
2023/06/07 05:35:03;;;;;;;6.25;2.92;;;12.60;99.90;;;;;;5116625;27;20073;-76
2023/06/07 05:37:30;;;;;;;7.05;3.15;;;12.70;99.90;;;;;;5131122;27;20039;-75
2023/06/07 05:39:56;;;;;;;9.65;3.40;;;12.80;99.90;;;;;;5125900;27;20035;-75
2023/06/07 05:42:22;;;;;;;7.43;3.45;;;12.80;99.90;;;;;;5118430;27;20502;-75
2023/06/07 05:44:48;;;;;;;7.45;2.55;;;12.90;99.90;;;;;;5153918;27;20054;-75
2023/06/07 05:47:15;;;;;;;16.27;3.58;;;13.00;99.90;;;;;;5135868;27;20103;-75
2023/06/07 05:49:44;;;;;;;10.02;3.10;;;13.00;99.90;;;;;;5131977;27;20053;-76
2023/06/07 05:52:10;;;;;;;6.75;3.00;;;13.10;99.90;;;;;;5118870;27;20039;-75
2023/06/07 05:54:39;;;;;;;10.15;3.60;;;13.10;99.90;;;;;;5135347;27;20050;-75
2023/06/07 05:57:06;;;;;;;11.00;3.97;;;13.10;99.90;;;;;;5126400;27;20073;-76
2023/06/07 05:59:31;;;;;;;7.53;3.25;;;13.20;99.90;;;;;;5097975;28;20066;-76
2023/06/07 06:01:57;;;;;;;7.88;2.78;;;13.20;99.90;;;;;;5106389;27;20043;-75
2023/06/07 06:04:24;;;;;;;6.28;2.90;;;13.20;99.90;;;;;;5118894;27;20521;-75
2023/06/07 06:06:50;;;;;;;10.10;3.17;;;13.30;99.90;;;;;;5117364;27;20131;-76
2023/06/07 06:09:17;;;;;;;8.35;3.17;;;13.20;99.90;;;;;;5118107;27;20051;-75
2023/06/07 06:11:43;;;;;;;5.97;3.40;;;13.30;99.90;;;;;;5137221;27;20041;-74
2023/06/07 06:14:10;;;;;;;4.53;2.83;;;13.40;99.90;;;;;;5138518;27;20053;-75
2023/06/07 06:16:36;;;;;;;8.98;3.47;;;13.40;99.90;;;;;;5138800;27;20049;-75
2023/06/07 06:19:01;;;;;;;10.00;3.03;;;13.30;99.90;;;;;;5139251;27;20042;-75
2023/06/07 06:21:27;;;;;;;4.90;3.17;;;13.30;99.90;;;;;;5139273;27;20501;-74
2023/06/07 06:23:53;;;;;;;7.78;3.17;;;13.30;99.90;;;;;;5133858;27;20360;-64
2023/06/07 06:26:18;;;;;;;8.13;2.88;;;13.30;99.90;;;;;;5147695;27;20096;-63
2023/06/07 06:28:44;;;;;;;7.22;2.90;;;13.40;99.90;;;;;;5157401;27;20407;-63
2023/06/07 06:31:11;;;;;;;8.07;2.75;;;13.40;99.90;;;;;;5157364;27;20103;-64
2023/06/07 06:33:36;;;;;;;7.13;2.63;;;13.50;99.90;;;;;;5157165;27;20452;-63
2023/06/07 06:36:03;;;;;;;8.60;2.90;;;13.50;99.90;;;;;;5152696;27;20091;-63
2023/06/07 06:38:28;;;;;;;6.65;2.92;;;13.50;99.90;;;;;;5156473;27;20079;-63
2023/06/07 06:40:54;;;;;;;8.95;2.47;;;13.60;99.90;;;;;;5156979;27;20390;-64
2023/06/07 06:43:20;;;;;;;5.88;2.45;;;13.50;99.90;;;;;;5156882;27;20035;-63
2023/06/07 06:45:46;;;;;;;6.30;2.40;;;13.70;99.90;;;;;;5157102;27;20048;-63
2023/06/07 06:48:12;;;;;;;7.90;2.42;;;13.80;99.90;;;;;;5156914;27;20113;-63
2023/06/07 06:50:38;;;;;;;7.47;2.30;;;13.90;99.90;;;;;;5152745;27;20092;-63
2023/06/07 06:53:03;;;;;;;6.35;2.45;;;13.90;99.90;;;;;;5156995;27;20078;-63
2023/06/07 06:55:30;;;;;;;7.38;2.88;;;14.10;99.90;;;;;;5156415;27;20039;-64
2023/06/07 06:57:55;;;;;;;5.50;2.42;;;14.10;99.90;;;;;;5156779;27;20043;-63
2023/06/07 07:00:23;;;;;;;5.75;2.58;;;14.20;99.90;;;;;;5157038;27;20038;-63
2023/06/07 07:02:49;;;;;;;6.95;2.40;;;14.30;99.90;;;;;;5156625;27;20118;-64
2023/06/07 07:05:15;;;;;;;7.55;2.60;;;14.30;99.90;;;;;;5156773;27;20118;-63
2023/06/07 07:07:41;;;;;;;5.78;2.40;;;14.50;99.90;;;;;;5156134;27;20499;-64
2023/06/07 07:10:08;;;;;;;5.38;2.58;;;14.50;99.90;;;;;;5156819;27;20035;-64
2023/06/07 07:12:35;;;;;;;7.25;3.00;;;14.60;99.90;;;;;;5156253;27;20049;-63
2023/06/07 07:15:01;;;;;;;3.90;2.42;;;14.70;99.90;;;;;;5135673;27;20046;-63
2023/06/07 07:17:26;;;;;;;7.18;2.97;;;14.70;99.90;;;;;;5122161;27;20459;-63
2023/06/07 07:19:53;;;;;;;4.60;2.50;;;14.70;99.90;;;;;;5149026;27;20157;-64
2023/06/07 07:22:19;;;;;;;6.68;2.65;;;14.90;99.90;;;;;;5148059;27;20043;-64
2023/06/07 07:24:45;;;;;;;7.72;2.95;;;15.00;99.90;;;;;;5148010;27;20048;-64
2023/06/07 07:27:10;;;;;;;5.72;2.92;;;15.10;99.90;;;;;;5151220;27;20096;-64
2023/06/07 07:29:36;;;;;;;7.25;2.92;;;15.10;99.90;;;;;;5155480;27;20035;-64
2023/06/07 07:32:02;;;;;;;6.70;2.40;;;15.30;99.90;;;;;;5154152;27;20518;-63
2023/06/07 07:34:27;;;;;;;7.22;2.70;;;15.40;99.90;;;;;;5149952;27;20042;-63
2023/06/07 07:36:55;;;;;;;7.97;2.60;;;15.60;99.90;;;;;;5132821;27;20512;-64
2023/06/07 07:39:21;;;;;;;7.30;2.40;;;15.70;99.90;;;;;;5125882;27;20395;-63
2023/06/07 07:41:47;;;;;;;8.18;2.60;;;15.80;99.90;;;;;;5155100;27;20034;-64
2023/06/07 07:44:13;;;;;;;7.47;2.40;;;15.90;99.90;;;;;;5116470;27;20051;-64
2023/06/07 07:46:39;;;;;;;3.95;2.20;;;16.00;99.90;;;;;;5154520;27;20046;-63
2023/06/07 07:49:04;;;;;;;7.10;2.60;;;16.10;99.90;;;;;;5154797;27;20122;-64
2023/06/07 07:51:30;;;;;;;4.55;2.15;;;16.20;99.90;;;;;;5154642;27;20096;-64
2023/06/07 07:53:56;;;;;;;5.30;2.67;;;16.30;99.90;;;;;;5136939;27;20051;-64
2023/06/07 07:56:22;;;;;;;7.57;2.80;;;16.50;99.90;;;;;;5154843;27;20447;-64
2023/06/07 07:58:49;;;;;;;8.00;2.90;;;16.70;99.90;;;;;;5136086;27;20039;-64
2023/06/07 08:01:21;;;;;;;6.53;2.80;;;17.00;99.90;;;;;;5154376;27;20616;-64
2023/06/07 08:03:47;;;;;;;6.55;2.65;;;17.20;99.90;;;;;;5136481;27;20090;-64
2023/06/07 08:06:14;;;;;;;7.70;3.22;;;17.50;99.90;;;;;;5154757;27;20058;-64
2023/06/07 08:08:40;;;;;;;4.05;2.40;;;17.50;99.90;;;;;;5153572;27;20098;-64
2023/06/07 08:11:06;;;;;;;4.97;2.67;;;17.70;99.90;;;;;;5154654;27;20030;-64
2023/06/07 08:13:31;;;;;;;6.53;2.85;;;17.70;99.90;;;;;;5153636;27;20045;-64
2023/06/07 08:15:57;;;;;;;5.20;2.60;;;17.80;99.90;;;;;;5136273;27;20034;-64
2023/06/07 08:18:23;;;;;;;7.38;2.90;;;17.90;99.90;;;;;;5147981;27;20054;-64
2023/06/07 08:20:49;;;;;;;5.28;2.85;;;18.00;99.90;;;;;;5153966;27;20043;-64
2023/06/07 08:23:14;;;;;;;4.97;2.70;;;18.00;99.90;;;;;;5139278;27;20407;-64
2023/06/07 08:25:40;;;;;;;8.35;2.72;;;18.10;99.90;;;;;;5133988;27;20046;-64
2023/06/07 08:28:06;;;;;;;5.07;2.60;;;18.00;99.90;;;;;;5154432;27;20115;-64
2023/06/07 08:30:32;;;;;;;5.53;2.90;;;18.00;99.90;;;;;;5154112;27;20050;-64
2023/06/07 08:32:57;;;;;;;6.13;2.90;;;17.90;99.90;;;;;;5136317;27;20491;-64
2023/06/07 08:35:23;;;;;;;4.55;2.60;;;17.90;99.90;;;;;;5154068;27;20053;-64
2023/06/07 08:37:49;;;;;;;7.10;2.60;;;18.00;99.90;;;;;;5151653;27;20550;-64
2023/06/07 08:40:19;;;;;;;6.38;2.92;;;18.10;99.90;;;;;;5150645;27;20122;-64
2023/06/07 08:42:45;;;;;;;7.72;3.15;;;18.30;99.90;;;;;;5132766;27;20125;-65
2023/06/07 08:45:11;;;;;;;6.40;2.75;;;18.50;99.90;;;;;;5150176;27;20049;-64
2023/06/07 08:47:40;;;;;;;5.70;2.83;;;18.50;99.90;;;;;;5149483;27;20046;-64
2023/06/07 08:50:12;;;;;;;5.32;2.75;;;18.50;99.90;;;;;;5152254;27;20134;-64
2023/06/07 08:52:48;;;;;;;6.40;2.72;;;18.50;99.90;;;;;;5154569;27;20042;-64
2023/06/07 08:55:14;;;;;;;6.35;2.95;;;18.60;99.90;;;;;;5154216;27;20043;-64
2023/06/07 08:57:40;;;;;;;5.43;2.70;;;18.70;99.90;;;;;;5153384;27;20035;-64
2023/06/07 09:00:08;;;;;;;7.43;3.10;;;18.90;99.90;;;;;;5154156;27;20425;-64
2023/06/07 09:02:34;;;;;;;7.53;2.78;;;18.90;99.90;;;;;;5153942;27;20464;-64
2023/06/07 09:05:06;;;;;;;6.72;2.90;;;18.90;99.90;;;;;;5153672;27;20043;-64
2023/06/07 09:07:35;;;;;;;7.07;2.80;;;18.90;99.90;;;;;;5153332;27;20125;-64
2023/06/07 09:10:01;;;;;;;5.18;2.80;;;19.00;99.90;;;;;;5153959;27;20077;-64
2023/06/07 09:12:27;;;;;;;6.18;2.67;;;19.10;99.90;;;;;;5146804;27;20082;-65
2023/06/07 09:14:54;;;;;;;3.45;2.30;;;19.40;99.90;;;;;;5135214;27;20074;-64
2023/06/07 09:17:20;;;;;;;6.85;2.70;;;19.50;99.90;;;;;;5150046;27;20043;-64
2023/06/07 09:19:46;;;;;;;6.22;2.80;;;19.60;99.90;;;;;;5152730;27;20038;-65
2023/06/07 09:22:14;;;;;;;7.03;2.95;;;19.60;99.90;;;;;;5152350;27;20084;-64
2023/06/07 09:24:40;;;;;;;5.40;2.53;;;19.70;99.90;;;;;;5136028;27;20493;-64
2023/06/07 09:27:08;;;;;;;5.30;2.50;;;19.80;99.90;;;;;;5153540;27;20057;-63
2023/06/07 09:29:41;;;;;;;5.47;2.50;;;20.00;99.90;;;;;;5135005;27;20045;-64
2023/06/07 09:32:21;;;;;;;6.88;2.90;;;20.20;99.90;;;;;;5153801;27;20050;-64
2023/06/07 09:34:48;;;;;;;5.80;2.55;;;20.40;99.90;;;;;;5154044;27;20066;-64
2023/06/07 09:37:16;;;;;;;5.25;2.30;;;20.50;99.90;;;;;;5153341;27;20125;-64
2023/06/07 09:39:42;;;;;;;4.28;2.30;;;20.60;99.90;;;;;;5135161;27;20395;-64
2023/06/07 09:42:17;;;;;;;5.25;2.20;;;20.80;99.90;;;;;;5153288;27;20049;-64
2023/06/07 09:44:43;;;;;;;5.90;2.22;;;20.90;99.90;;;;;;5153305;27;20562;-64
2023/06/07 09:47:22;;;;;;;6.45;2.60;;;20.90;99.90;;;;;;5155911;27;20073;-63
2023/06/07 09:49:48;;;;;;;4.30;2.47;;;21.00;99.90;;;;;;5149008;27;20031;-64
2023/06/07 09:52:15;;;;;;;6.95;2.58;;;20.90;99.90;;;;;;5137798;27;20046;-64
2023/06/07 09:54:45;;;;;;;5.28;2.42;;;20.90;99.90;;;;;;5137884;27;20085;-63
2023/06/07 09:57:24;;;;;;;4.50;2.50;;;21.10;99.90;;;;;;5120617;27;20042;-64
2023/06/07 09:59:58;;;;;;;4.00;2.55;;;21.20;99.90;;;;;;5156149;27;20043;-65
2023/06/07 10:02:24;;;;;;;4.38;2.63;;;21.20;99.90;;;;;;5154589;27;20111;-64
2023/06/07 10:04:52;;;;;;;3.75;2.30;;;21.20;99.90;;;;;;5131201;27;20382;-65
2023/06/07 10:07:23;;;;;;;5.95;2.90;;;21.10;99.90;;;;;;5156691;27;20506;-64
2023/06/07 10:09:53;;;;;;;5.28;2.70;;;21.00;99.90;;;;;;5157105;27;20039;-64
2023/06/07 10:12:21;;;;;;;5.00;3.22;;;21.10;99.90;;;;;;5156806;27;20172;-64
2023/06/07 10:14:47;;;;;;;5.55;2.53;;;21.20;99.90;;;;;;5157049;27;20096;-64
2023/06/07 10:17:15;;;;;;;5.57;2.50;;;21.30;99.90;;;;;;5156758;27;20509;-64
2023/06/07 10:19:47;;;;;;;5.95;2.60;;;21.40;99.90;;;;;;5155666;27;20099;-64
2023/06/07 10:22:16;;;;;;;6.32;2.60;;;21.60;99.90;;;;;;5155544;27;20050;-64
2023/06/07 10:24:54;;;;;;;5.63;2.92;;;21.70;99.90;;;;;;5135188;27;20043;-65
2023/06/07 10:27:23;;;;;;;5.20;2.50;;;21.90;99.90;;;;;;5156687;27;20042;-65
2023/06/07 10:30:06;;;;;;;6.03;2.92;;;21.90;99.90;;;;;;5156400;27;20031;-64
2023/06/07 10:32:36;;;;;;;6.20;2.88;;;21.90;99.90;;;;;;5154851;27;20058;-64
2023/06/07 10:35:03;;;;;;;6.03;2.42;;;22.00;99.90;;;;;;5152674;27;20043;-64
2023/06/07 10:37:32;;;;;;;5.35;2.97;;;22.10;99.90;;;;;;5155976;27;20038;-66
2023/06/07 10:39:58;;;;;;;4.85;2.00;;;22.30;99.90;;;;;;5156114;27;20035;-65
2023/06/07 10:42:25;;;;;;;5.03;2.50;;;22.50;99.90;;;;;;5156136;27;20051;-66
2023/06/07 10:44:51;;;;;;;5.45;2.10;;;22.50;99.90;;;;;;5156807;27;20035;-65
2023/06/07 10:47:22;;;;;;;4.68;2.60;;;22.50;99.90;;;;;;5156216;27;20057;-64
2023/06/07 10:49:51;;;;;;;5.43;2.40;;;22.60;99.90;;;;;;5154868;27;20034;-64
2023/06/07 10:52:17;;;;;;;6.38;2.40;;;22.60;99.90;;;;;;5138079;27;20074;-64
2023/06/07 10:54:43;;;;;;;4.47;2.60;;;22.70;99.90;;;;;;5156006;27;20443;-64
2023/06/07 10:57:10;;;;;;;5.53;2.55;;;22.80;99.90;;;;;;5155726;27;20043;-64
2023/06/07 10:59:36;;;;;;;7.25;2.45;;;23.10;99.90;;;;;;5156151;27;20502;-64
2023/06/07 11:02:23;;;;;;;4.70;2.45;;;23.20;99.90;;;;;;5156364;27;20082;-64
2023/06/07 11:04:49;;;;;;;;;;;23.60;99.90;;;;;;5156229;27;20049;-64
2023/06/07 11:07:18;;;;;;;7.03;2.20;;;24.00;99.90;;;;;;5155870;27;19918;-64
2023/06/07 11:09:44;;;;;;;5.40;2.50;;;24.10;99.90;;;;;;5148802;27;20054;-64
2023/06/07 11:12:35;;;;;;;5.38;2.53;;;24.40;99.90;;;;;;5154929;27;20042;-64
2023/06/07 11:15:16;;;;;;;4.95;2.28;;;24.50;99.90;;;;;;5133209;27;20051;-64
2023/06/07 11:18:04;;;;;;;6.68;2.28;;;24.60;99.90;;;;;;5136795;27;20134;-64
2023/06/07 11:20:36;;;;;;;3.53;2.28;;;24.70;99.90;;;;;;5151901;27;20364;-64
2023/06/07 11:23:24;;;;;;;6.13;2.20;;;24.50;99.90;;;;;;5133498;27;20073;-64
2023/06/07 11:25:52;;;;;;;6.22;2.45;;;24.70;99.90;;;;;;5151600;27;20391;-64
2023/06/07 11:28:23;;;;;;;6.13;2.63;;;25.00;99.90;;;;;;5150334;27;20074;-65
2023/06/07 11:30:50;;;;;;;5.50;2.40;;;25.20;99.90;;;;;;5151126;27;20503;-64
2023/06/07 11:33:16;;;;;;;4.18;2.20;;;25.40;99.90;;;;;;5150112;27;20043;-64
2023/06/07 11:35:42;;;;;;;4.78;2.42;;;25.50;99.90;;;;;;5139032;27;20151;-64
2023/06/07 11:38:09;;;;;;;5.45;2.90;;;25.60;99.90;;;;;;5154879;27;20092;-65
2023/06/07 11:40:35;;;;;;;4.90;2.13;;;25.50;99.90;;;;;;5154574;27;20074;-65
2023/06/07 11:43:02;;;;;;;5.75;2.38;;;25.50;99.90;;;;;;5155577;27;20123;-64
2023/06/07 11:45:28;;;;;;;4.30;2.05;;;25.40;99.90;;;;;;5155269;27;20046;-65
2023/06/07 11:48:00;;;;;;;5.03;2.80;;;25.40;99.90;;;;;;5136066;27;20395;-65
2023/06/07 11:50:26;;;;;;;5.97;2.50;;;25.30;99.90;;;;;;5154600;27;20041;-65
2023/06/07 11:52:54;;;;;;;4.55;2.17;;;25.50;99.90;;;;;;5155129;27;20038;-64
2023/06/07 11:55:20;;;;;;;5.38;2.30;;;25.70;99.90;;;;;;5151428;27;20046;-64
2023/06/07 11:57:51;;;;;;;4.50;2.35;;;25.80;99.90;;;;;;5155323;27;20048;-65
2023/06/07 12:00:20;;;;;;;4.75;2.28;;;26.10;99.90;;;;;;5146179;27;20107;-65
2023/06/07 12:02:47;;;;;;;5.13;2.60;;;26.20;99.90;;;;;;5154652;27;20038;-64
2023/06/07 12:05:14;;;;;;;5.45;2.58;;;26.40;99.90;;;;;;5154822;27;20118;-64
2023/06/07 12:07:41;;;;;;;5.93;2.60;;;26.50;99.90;;;;;;5154061;27;20046;-64
2023/06/07 12:10:07;;;;;;;4.43;2.03;;;26.40;99.90;;;;;;5135328;27;20042;-65
2023/06/07 12:12:37;;;;;;;6.07;2.40;;;26.50;99.90;;;;;;5154629;27;20061;-65
2023/06/07 12:15:04;;;;;;;4.07;2.42;;;26.50;99.90;;;;;;5154548;27;20042;-64
2023/06/07 12:17:35;;;;;;;5.43;2.40;;;26.40;99.90;;;;;;5153829;27;20046;-64
2023/06/07 12:20:11;;;;;;;3.90;2.30;;;26.40;99.90;;;;;;5153810;27;20042;-64
2023/06/07 12:22:38;;;;;;;3.67;2.13;;;26.60;99.90;;;;;;5154154;27;20041;-64
2023/06/07 12:25:09;;;;;;;4.30;2.60;;;26.50;99.90;;;;;;5153256;27;20054;-64
2023/06/07 12:27:37;;;;;;;3.95;2.42;;;26.70;99.90;;;;;;5152658;27;20050;-64
2023/06/07 12:30:08;;;;;;;5.05;2.30;;;26.70;99.90;;;;;;5154018;27;20047;-64
2023/06/07 12:32:33;;;;;;;4.80;2.42;;;26.90;99.90;;;;;;5153746;27;20066;-64
2023/06/07 12:35:05;;;;;;;4.10;2.08;;;26.80;99.90;;;;;;5152891;27;20395;-64
2023/06/07 12:37:37;;;;;;;5.50;2.40;;;26.90;99.90;;;;;;5151621;27;20103;-65
2023/06/07 12:40:07;;;;;;;3.78;2.28;;;27.00;99.90;;;;;;5145760;27;20046;-64
2023/06/07 12:42:37;;;;;;;3.80;2.20;;;26.90;99.90;;;;;;5152789;27;20069;-64
2023/06/07 12:45:04;;;;;;;3.65;2.15;;;26.90;99.90;;;;;;5151924;27;20528;-64
2023/06/07 12:47:29;;;;;;;5.15;2.17;;;26.70;99.90;;;;;;5151464;27;20242;-64